createdAt,value
2023-02-16T00:02:49.904Z,23.8
2023-02-16T00:07:50.001Z,24.4
2023-02-16T00:12:50.969Z,24.4
2023-02-16T00:17:49.955Z,24.4
2023-02-16T00:22:49.905Z,24.4
2023-02-16T00:27:49.937Z,24.8
2023-02-16T00:32:51.153Z,24.4
2023-02-16T00:37:49.898Z,24.4
2023-02-16T00:42:50.944Z,24.4
2023-02-16T00:47:50.383Z,24.4
2023-02-16T00:52:49.888Z,24.8
2023-02-16T00:57:49.945Z,24.8
2023-02-16T01:02:49.889Z,24.8
2023-02-16T01:07:49.924Z,24.9
2023-02-16T01:12:49.952Z,25.4
2023-02-16T01:18:28.430Z,25.7
2023-02-16T01:22:50.120Z,25.7
2023-02-16T01:27:49.912Z,25.7
2023-02-16T01:32:49.934Z,25.7
2023-02-16T01:37:49.893Z,25.7
2023-02-16T01:42:50.001Z,25.6
2023-02-16T01:47:50.031Z,25.3
2023-02-16T01:52:50.144Z,25
2023-02-16T01:57:49.929Z,25.3
2023-02-16T02:02:49.970Z,25.6
2023-02-16T02:07:51.488Z,25.3
2023-02-16T02:12:49.915Z,25.6
2023-02-16T02:17:49.901Z,25.6
2023-02-16T02:22:49.938Z,26.4
2023-02-16T02:27:49.966Z,26.4
2023-02-16T02:32:49.991Z,26.4
2023-02-16T02:37:49.927Z,26
2023-02-16T02:42:49.939Z,26.4
2023-02-16T02:47:49.978Z,26.4
2023-02-16T02:52:49.902Z,26.4
2023-02-16T02:57:49.928Z,26.4
2023-02-16T03:02:49.909Z,27.7
2023-02-16T03:07:50.212Z,27.7
2023-02-16T03:12:49.969Z,28.1
2023-02-16T03:17:49.900Z,28.1
2023-02-16T03:22:49.949Z,28.1
2023-02-16T03:27:49.975Z,27.7
2023-02-16T03:32:49.939Z,27.4
2023-02-16T03:37:49.925Z,27.4
2023-02-16T03:42:49.975Z,27.4
2023-02-16T03:47:49.930Z,27
2023-02-16T03:52:49.995Z,27.4
2023-02-16T03:57:50.258Z,27.2
2023-02-16T04:02:49.932Z,27.2
2023-02-16T04:07:50.200Z,27.2
2023-02-16T04:12:49.931Z,27.2
2023-02-16T04:17:50.418Z,27.3
2023-02-16T04:22:49.941Z,27.3
2023-02-16T04:27:50.036Z,27.3
2023-02-16T04:32:50.001Z,27.3
2023-02-16T04:37:52.983Z,27.7
2023-02-16T04:42:49.931Z,27.7
2023-02-16T04:47:49.903Z,27.7
2023-02-16T04:52:49.911Z,27.7
2023-02-16T04:57:49.941Z,27.7
2023-02-16T05:02:49.925Z,27.9
2023-02-16T05:07:52.523Z,28.1
2023-02-16T05:12:49.990Z,28.9
2023-02-16T05:17:50.001Z,29
2023-02-16T05:22:50.041Z,29.1
2023-02-16T05:27:49.933Z,29.1
2023-02-16T05:32:49.948Z,29.1
2023-02-16T05:37:52.411Z,29.1
2023-02-16T05:42:50.028Z,27.7
2023-02-16T05:47:49.972Z,27.1
2023-02-16T05:52:50.058Z,26.4
2023-02-16T05:57:50.424Z,25.8
2023-02-16T06:02:49.924Z,25.3
2023-02-16T06:07:49.965Z,25.3
2023-02-16T06:12:50.040Z,25.3
2023-02-16T06:17:50.967Z,25.8
2023-02-16T06:22:49.961Z,25.8
2023-02-16T06:27:50.051Z,26
2023-02-16T06:32:49.981Z,28.3
2023-02-16T06:37:49.964Z,29.6
2023-02-16T06:42:49.901Z,29.6
2023-02-16T06:47:49.927Z,29.6
2023-02-16T06:52:49.977Z,29.6
2023-02-16T06:57:49.941Z,28.9
2023-02-16T07:02:50.016Z,28.5
2023-02-16T07:07:49.965Z,26.9
2023-02-16T07:12:49.961Z,26.9
2023-02-16T07:17:50.054Z,26.9
2023-02-16T07:22:50.022Z,26.9
2023-02-16T07:27:49.985Z,26.9
2023-02-16T07:32:49.946Z,26.9
2023-02-16T07:37:49.962Z,27.3
2023-02-16T07:42:49.995Z,27.7
2023-02-16T07:47:49.965Z,27.3
2023-02-16T07:52:49.962Z,27.2
2023-02-16T07:57:49.977Z,27.3
2023-02-16T08:02:50.134Z,27.5
2023-02-16T08:07:50.032Z,27.5
2023-02-16T08:12:49.975Z,27.5
2023-02-16T08:17:50.000Z,27.2
2023-02-16T08:22:50.001Z,26.4
2023-02-16T08:27:50.533Z,24.6
2023-02-16T08:32:49.952Z,22.9
2023-02-16T08:37:49.954Z,22.1
2023-02-16T08:42:50.036Z,21.8
2023-02-16T08:47:50.040Z,21.5
2023-02-16T08:52:50.046Z,21
2023-02-16T08:57:50.038Z,20.1
2023-02-16T09:02:50.034Z,18.7
2023-02-16T09:07:50.101Z,18.7
2023-02-16T09:12:50.516Z,18.5
2023-02-16T09:17:50.015Z,16.4
2023-02-16T09:22:50.083Z,16.4
2023-02-16T09:27:49.974Z,16
2023-02-16T09:32:50.053Z,15.9
2023-02-16T09:37:49.997Z,15.3
2023-02-16T09:42:49.996Z,14.9
2023-02-16T09:47:50.086Z,14
2023-02-16T09:52:53.046Z,13.4
2023-02-16T09:57:50.734Z,12.8
2023-02-16T10:02:50.195Z,12.1
2023-02-16T10:07:50.215Z,12.1
2023-02-16T10:12:50.247Z,12.1
2023-02-16T10:17:50.025Z,12.1
2023-02-16T10:22:50.052Z,12.5
2023-02-16T10:27:50.028Z,12.6
2023-02-16T10:32:50.106Z,13.3
2023-02-16T10:37:49.998Z,13.4
2023-02-16T10:42:49.958Z,13.4
2023-02-16T10:47:50.050Z,13.4
2023-02-16T10:52:49.972Z,13.4
2023-02-16T10:57:50.105Z,13.4
2023-02-16T11:02:51.038Z,13.2
2023-02-16T11:07:50.294Z,13.2
2023-02-16T11:12:50.064Z,12.9
2023-02-16T11:17:50.002Z,12.6
2023-02-16T11:22:50.049Z,12.6
2023-02-16T11:27:50.020Z,12.6
2023-02-16T11:32:50.126Z,12.6
2023-02-16T11:37:50.035Z,12.6
2023-02-16T11:42:50.047Z,12.6
2023-02-16T11:47:50.077Z,12.6
2023-02-16T11:52:49.990Z,12.6
2023-02-16T11:57:49.968Z,12.6
2023-02-16T12:02:50.070Z,11.8
2023-02-16T12:07:51.954Z,11.7
2023-02-16T12:12:50.458Z,11.7
2023-02-16T12:17:49.998Z,11.3
2023-02-16T12:22:50.049Z,10.6
2023-02-16T12:27:49.986Z,10.1
2023-02-16T12:32:49.988Z,9.9
2023-02-16T12:37:50.524Z,9.8
2023-02-16T12:42:49.989Z,9.3
2023-02-16T12:47:50.002Z,9.1
2023-02-16T12:52:50.422Z,8.9
2023-02-16T12:57:49.976Z,8.9
2023-02-16T13:02:50.077Z,8.9
2023-02-16T13:07:50.184Z,9
2023-02-16T13:12:51.074Z,9
2023-02-16T13:17:50.049Z,9
2023-02-16T13:22:50.045Z,9.2
2023-02-16T13:27:50.058Z,9.4
2023-02-16T13:32:50.106Z,9.2
2023-02-16T13:37:50.000Z,9.2
2023-02-16T13:42:50.307Z,9.1
2023-02-16T13:47:50.246Z,9.1
2023-02-16T13:52:50.037Z,9.1
2023-02-16T13:57:55.305Z,9.1
2023-02-16T14:02:51.559Z,9.1
2023-02-16T14:07:50.292Z,9.1
2023-02-16T14:12:50.518Z,9.1
2023-02-16T14:17:50.255Z,9.1
2023-02-16T14:22:50.143Z,9.1
2023-02-16T14:27:50.151Z,9.1
2023-02-16T14:32:50.053Z,8.8
2023-02-16T14:37:49.979Z,8.4
2023-02-16T14:42:51.037Z,7.7
2023-02-16T14:47:50.344Z,7
2023-02-16T14:52:51.038Z,6.7
2023-02-16T14:57:50.026Z,6.5
2023-02-16T15:02:50.202Z,6.4
2023-02-16T15:07:50.043Z,6.3
2023-02-16T15:12:50.075Z,6.3
2023-02-16T15:17:50.050Z,6.3
2023-02-16T15:22:50.227Z,6.3
2023-02-16T15:27:50.041Z,6.3
2023-02-16T15:32:49.982Z,6.3
2023-02-16T15:37:50.027Z,6.2
2023-02-16T15:42:50.508Z,6.3
2023-02-16T15:47:50.086Z,6.3
2023-02-16T15:52:50.057Z,6.2
2023-02-16T15:57:50.044Z,6.3
2023-02-16T16:02:51.310Z,6.2
2023-02-16T16:12:55.296Z,6.3
2023-02-16T16:17:55.059Z,6.2
2023-02-16T16:22:55.046Z,6.1
2023-02-16T16:27:55.007Z,6.1
2023-02-16T16:32:55.017Z,6.1
2023-02-16T16:37:55.108Z,6.1
2023-02-16T16:42:55.009Z,6.1
2023-02-16T16:47:55.238Z,6.2
2023-02-16T16:52:55.081Z,6.2
2023-02-16T16:57:55.082Z,6.4
2023-02-16T17:02:55.281Z,6.5
2023-02-16T17:07:55.083Z,9.1
2023-02-16T17:12:55.033Z,9.6
2023-02-16T17:17:55.414Z,9.9
2023-02-16T17:22:55.080Z,10.1
2023-02-16T17:27:55.376Z,10.4
2023-02-16T17:32:55.063Z,13.4
2023-02-16T17:37:56.028Z,26.4
2023-02-16T17:42:55.257Z,29.1
2023-02-16T17:47:55.066Z,29.1
2023-02-16T17:52:55.051Z,29.2
2023-02-16T17:57:55.017Z,29.1
2023-02-16T18:02:55.072Z,26.8
2023-02-16T18:07:55.815Z,26.4
2023-02-16T18:12:55.015Z,18.2
2023-02-16T18:17:58.030Z,17.5
2023-02-16T18:22:55.033Z,16.9
2023-02-16T18:27:55.041Z,15.8
2023-02-16T18:32:55.328Z,14.2
2023-02-16T18:37:55.014Z,15.4
2023-02-16T18:42:55.043Z,15.4
2023-02-16T18:47:55.202Z,15.4
2023-02-16T18:57:55.038Z,29.4
2023-02-16T19:02:55.094Z,28.85
2023-02-16T19:07:55.273Z,28.3
2023-02-16T19:12:55.041Z,22.85
2023-02-16T19:17:55.061Z,17.4
2023-02-16T19:22:55.024Z,17.15
2023-02-16T19:27:55.086Z,16.9
2023-02-16T19:32:55.270Z,16.5
2023-02-16T19:37:55.094Z,16.5
2023-02-16T19:42:55.080Z,13.7
2023-02-16T19:47:55.015Z,13.6
2023-02-16T19:52:55.035Z,13.6
2023-02-16T19:57:55.039Z,12.4
2023-02-16T20:02:56.168Z,11.5
2023-02-16T20:07:55.522Z,11.5
2023-02-16T20:12:55.067Z,11.5
2023-02-16T20:17:58.031Z,11.9
2023-02-16T20:22:55.013Z,12.1
2023-02-16T20:27:55.325Z,12.1
2023-02-16T20:32:55.137Z,11.9
2023-02-16T20:37:55.043Z,12.1
2023-02-16T20:42:55.067Z,12.1
2023-02-16T20:47:55.065Z,11.9
2023-02-16T20:52:55.043Z,11.9
2023-02-16T20:57:55.058Z,11.8
2023-02-16T21:02:55.089Z,11.9
2023-02-16T21:07:55.066Z,12.1
2023-02-16T21:12:55.044Z,12.3
2023-02-16T21:17:55.044Z,12.4
2023-02-16T21:22:55.117Z,13.1
2023-02-16T21:27:55.078Z,13.7
2023-02-16T21:32:55.104Z,14.2
2023-02-16T21:37:55.127Z,14.2
2023-02-16T21:42:55.070Z,14.2
2023-02-16T21:47:55.096Z,14.2
2023-02-16T21:52:55.075Z,14.2
2023-02-16T21:57:55.087Z,14.7
2023-02-16T22:02:55.015Z,14.2
2023-02-16T22:07:55.040Z,14.2
2023-02-16T22:12:55.054Z,14.2
2023-02-16T22:17:55.047Z,14.2
2023-02-16T22:22:55.117Z,14.2
2023-02-16T22:27:55.024Z,14.2
2023-02-16T22:32:56.081Z,14.2
2023-02-16T22:37:55.100Z,13.7
2023-02-16T22:42:55.533Z,13.7
2023-02-16T22:47:55.065Z,13.7
2023-02-16T22:52:55.097Z,13.6
2023-02-16T22:57:55.130Z,13.3
2023-02-16T23:02:55.078Z,13.1
2023-02-16T23:07:55.150Z,13.1
2023-02-16T23:12:55.140Z,12.9
2023-02-16T23:17:56.083Z,12.2
2023-02-16T23:22:56.107Z,12.2
2023-02-16T23:27:55.096Z,11.5
2023-02-16T23:32:55.088Z,11.5
2023-02-16T23:37:55.087Z,11.2
2023-02-16T23:42:55.107Z,10.5
2023-02-16T23:47:55.064Z,10.4
2023-02-16T23:52:55.522Z,9.7
2023-02-16T23:57:55.141Z,9.3
